sensor_id;sensor_type;location;lat;lon;timestamp;pressure;altitude;pressure_sealevel;temperature;humidity
19777;BME280;10047;42.490;26.012;2023-04-23T00:00:26;100652.28;;;9.73;100.00
19777;BME280;10047;42.490;26.012;2023-04-23T00:02:52;100684.13;;;9.96;100.00
19777;BME280;10047;42.490;26.012;2023-04-23T00:05:19;100644.91;;;9.56;100.00
19777;BME280;10047;42.490;26.012;2023-04-23T00:07:44;100652.28;;;9.73;100.00
19777;BME280;10047;42.490;26.012;2023-04-23T00:10:11;100679.06;;;9.96;100.00
19777;BME280;10047;42.490;26.012;2023-04-23T00:12:37;100581.09;;;9.19;100.00
19777;BME280;10047;42.490;26.012;2023-04-23T00:15:08;100683.50;;;9.79;100.00
19777;BME280;10047;42.490;26.012;2023-04-23T00:17:36;100647.28;;;9.68;100.00
19777;BME280;10047;42.490;26.012;2023-04-23T00:20:02;100689.59;;;9.68;100.00
19777;BME280;10047;42.490;26.012;2023-04-23T00:22:27;100668.91;;;9.32;100.00
19777;BME280;10047;42.490;26.012;2023-04-23T00:24:53;100634.97;;;9.39;100.00
19777;BME280;10047;42.490;26.012;2023-04-23T00:27:18;100692.97;;;9.67;100.00
19777;BME280;10047;42.490;26.012;2023-04-23T00:29:45;100629.28;;;9.21;100.00
19777;BME280;10047;42.490;26.012;2023-04-23T00:32:34;100688.28;;;9.35;100.00
19777;BME280;10047;42.490;26.012;2023-04-23T00:35:00;100634.72;;;8.89;100.00
19777;BME280;10047;42.490;26.012;2023-04-23T00:37:25;100695.13;;;9.30;100.00
19777;BME280;10047;42.490;26.012;2023-04-23T00:39:51;100729.53;;;9.53;100.00
19777;BME280;10047;42.490;26.012;2023-04-23T00:42:16;100616.28;;;8.73;100.00
19777;BME280;10047;42.490;26.012;2023-04-23T00:44:42;100667.28;;;9.27;100.00
19777;BME280;10047;42.490;26.012;2023-04-23T00:47:08;100733.00;;;9.48;100.00
19777;BME280;10047;42.490;26.012;2023-04-23T00:49:34;100730.47;;;9.45;100.00
19777;BME280;10047;42.490;26.012;2023-04-23T00:52:00;100693.31;;;9.41;100.00
19777;BME280;10047;42.490;26.012;2023-04-23T00:54:26;100701.81;;;9.37;100.00
19777;BME280;10047;42.490;26.012;2023-04-23T00:56:52;100652.25;;;9.09;100.00
19777;BME280;10047;42.490;26.012;2023-04-23T00:59:19;100698.69;;;9.17;100.00
19777;BME280;10047;42.490;26.012;2023-04-23T01:01:45;100693.59;;;9.15;100.00
19777;BME280;10047;42.490;26.012;2023-04-23T01:04:15;100705.84;;;9.53;100.00
19777;BME280;10047;42.490;26.012;2023-04-23T01:06:42;100715.53;;;9.21;100.00
19777;BME280;10047;42.490;26.012;2023-04-23T01:09:08;100660.06;;;8.91;100.00
19777;BME280;10047;42.490;26.012;2023-04-23T01:11:42;100744.03;;;9.44;100.00
19777;BME280;10047;42.490;26.012;2023-04-23T01:14:08;100765.78;;;9.66;100.00
19777;BME280;10047;42.490;26.012;2023-04-23T01:16:35;100699.44;;;9.25;100.00
19777;BME280;10047;42.490;26.012;2023-04-23T01:19:01;100776.88;;;9.57;100.00
19777;BME280;10047;42.490;26.012;2023-04-23T01:21:27;100763.63;;;9.33;100.00
19777;BME280;10047;42.490;26.012;2023-04-23T01:23:54;100734.81;;;9.38;100.00
19777;BME280;10047;42.490;26.012;2023-04-23T01:26:20;100740.84;;;9.27;100.00
19777;BME280;10047;42.490;26.012;2023-04-23T01:28:46;100778.19;;;9.13;100.00
19777;BME280;10047;42.490;26.012;2023-04-23T01:31:11;100744.28;;;9.20;100.00
19777;BME280;10047;42.490;26.012;2023-04-23T01:33:39;100778.84;;;9.30;100.00
19777;BME280;10047;42.490;26.012;2023-04-23T01:36:05;100778.94;;;9.19;100.00
19777;BME280;10047;42.490;26.012;2023-04-23T01:38:32;100795.06;;;9.14;100.00
19777;BME280;10047;42.490;26.012;2023-04-23T01:40:57;100806.81;;;9.24;100.00
19777;BME280;10047;42.490;26.012;2023-04-23T01:43:24;100731.22;;;8.69;100.00
19777;BME280;10047;42.490;26.012;2023-04-23T01:45:49;100757.31;;;8.84;100.00
19777;BME280;10047;42.490;26.012;2023-04-23T01:48:15;100695.78;;;8.66;100.00
19777;BME280;10047;42.490;26.012;2023-04-23T01:50:41;100731.16;;;8.79;100.00
19777;BME280;10047;42.490;26.012;2023-04-23T01:53:07;100776.66;;;8.97;100.00
19777;BME280;10047;42.490;26.012;2023-04-23T01:55:33;100779.25;;;8.89;100.00
19777;BME280;10047;42.490;26.012;2023-04-23T01:57:58;100728.94;;;8.41;100.00
19777;BME280;10047;42.490;26.012;2023-04-23T02:00:24;100712.91;;;8.37;100.00
19777;BME280;10047;42.490;26.012;2023-04-23T02:02:49;100710.38;;;8.37;100.00
19777;BME280;10047;42.490;26.012;2023-04-23T02:05:18;100715.31;;;8.55;100.00
19777;BME280;10047;42.490;26.012;2023-04-23T02:07:46;100773.44;;;8.73;100.00
19777;BME280;10047;42.490;26.012;2023-04-23T02:10:12;100666.69;;;8.01;100.00
19777;BME280;10047;42.490;26.012;2023-04-23T02:12:38;100712.09;;;8.32;100.00
19777;BME280;10047;42.490;26.012;2023-04-23T02:15:06;100708.91;;;7.99;100.00
19777;BME280;10047;42.490;26.012;2023-04-23T02:17:32;100733.38;;;8.01;100.00
19777;BME280;10047;42.490;26.012;2023-04-23T02:19:57;100719.03;;;7.97;100.00
19777;BME280;10047;42.490;26.012;2023-04-23T02:22:23;100761.16;;;8.12;100.00
19777;BME280;10047;42.490;26.012;2023-04-23T02:24:50;100721.59;;;7.91;100.00
19777;BME280;10047;42.490;26.012;2023-04-23T02:27:16;100784.75;;;8.26;100.00
19777;BME280;10047;42.490;26.012;2023-04-23T02:29:41;100774.66;;;8.14;100.00
19777;BME280;10047;42.490;26.012;2023-04-23T02:32:07;100756.13;;;8.07;100.00
19777;BME280;10047;42.490;26.012;2023-04-23T02:34:32;100752.00;;;7.88;100.00
19777;BME280;10047;42.490;26.012;2023-04-23T02:36:58;100778.00;;;8.19;100.00
19777;BME280;10047;42.490;26.012;2023-04-23T02:39:23;100754.50;;;7.91;100.00
19777;BME280;10047;42.490;26.012;2023-04-23T02:41:49;100763.69;;;8.09;100.00
19777;BME280;10047;42.490;26.012;2023-04-23T02:44:14;100651.72;;;7.66;100.00
19777;BME280;10047;42.490;26.012;2023-04-23T02:46:40;100616.19;;;7.85;100.00
19777;BME280;10047;42.490;26.012;2023-04-23T02:49:05;100696.94;;;8.20;100.00
19777;BME280;10047;42.490;26.012;2023-04-23T02:51:31;100691.94;;;8.16;100.00
19777;BME280;10047;42.490;26.012;2023-04-23T02:53:57;100678.31;;;8.35;100.00
19777;BME280;10047;42.490;26.012;2023-04-23T02:56:23;100676.78;;;8.10;100.00
19777;BME280;10047;42.490;26.012;2023-04-23T02:58:48;100644.91;;;7.77;100.00
19777;BME280;10047;42.490;26.012;2023-04-23T03:01:14;100668.34;;;8.05;100.00
19777;BME280;10047;42.490;26.012;2023-04-23T03:03:39;100682.53;;;8.33;100.00
19777;BME280;10047;42.490;26.012;2023-04-23T03:06:06;100613.72;;;7.73;100.00
19777;BME280;10047;42.490;26.012;2023-04-23T03:08:32;100627.88;;;7.99;100.00
19777;BME280;10047;42.490;26.012;2023-04-23T03:10:58;100658.06;;;8.30;100.00
19777;BME280;10047;42.490;26.012;2023-04-23T03:13:24;100669.94;;;8.25;100.00
19777;BME280;10047;42.490;26.012;2023-04-23T03:15:50;100684.13;;;8.47;100.00
19777;BME280;10047;42.490;26.012;2023-04-23T03:18:16;100565.59;;;7.76;100.00
19777;BME280;10047;42.490;26.012;2023-04-23T03:20:41;100666.50;;;8.32;100.00
19777;BME280;10047;42.490;26.012;2023-04-23T03:23:07;100662.25;;;8.34;100.00
19777;BME280;10047;42.490;26.012;2023-04-23T03:25:32;100655.66;;;8.11;100.00
19777;BME280;10047;42.490;26.012;2023-04-23T03:27:58;100626.06;;;8.19;100.00
19777;BME280;10047;42.490;26.012;2023-04-23T03:30:24;100632.81;;;8.18;100.00
19777;BME280;10047;42.490;26.012;2023-04-23T03:32:50;100641.19;;;8.34;100.00
19777;BME280;10047;42.490;26.012;2023-04-23T03:35:15;100629.47;;;8.10;100.00
19777;BME280;10047;42.490;26.012;2023-04-23T03:37:41;100516.22;;;7.29;100.00
19777;BME280;10047;42.490;26.012;2023-04-23T03:40:07;100558.91;;;7.71;100.00
19777;BME280;10047;42.490;26.012;2023-04-23T03:42:33;100567.28;;;7.82;100.00
19777;BME280;10047;42.490;26.012;2023-04-23T03:45:00;100610.94;;;8.08;100.00
19777;BME280;10047;42.490;26.012;2023-04-23T03:47:25;100574.59;;;8.15;100.00
19777;BME280;10047;42.490;26.012;2023-04-23T03:49:51;100590.72;;;8.04;100.00
19777;BME280;10047;42.490;26.012;2023-04-23T03:52:17;100580.53;;;8.08;100.00
19777;BME280;10047;42.490;26.012;2023-04-23T03:54:43;100558.69;;;8.01;100.00
19777;BME280;10047;42.490;26.012;2023-04-23T03:57:08;100559.50;;;8.03;100.00
19777;BME280;10047;42.490;26.012;2023-04-23T03:59:34;100483.97;;;7.55;100.00
19777;BME280;10047;42.490;26.012;2023-04-23T04:02:00;100511.63;;;7.77;100.00
19777;BME280;10047;42.490;26.012;2023-04-23T04:04:28;100525.91;;;7.84;100.00
19777;BME280;10047;42.490;26.012;2023-04-23T04:06:55;100536.13;;;7.71;100.00
19777;BME280;10047;42.490;26.012;2023-04-23T04:09:21;100524.38;;;7.64;100.00
19777;BME280;10047;42.490;26.012;2023-04-23T04:11:46;100531.75;;;7.91;100.00
19777;BME280;10047;42.490;26.012;2023-04-23T04:14:12;100521.75;;;7.77;100.00
19777;BME280;10047;42.490;26.012;2023-04-23T04:16:38;100527.63;;;7.81;100.00
19777;BME280;10047;42.490;26.012;2023-04-23T04:19:03;100536.75;;;8.00;100.00
19777;BME280;10047;42.490;26.012;2023-04-23T04:21:29;100538.38;;;8.07;100.00
19777;BME280;10047;42.490;26.012;2023-04-23T04:23:54;100541.56;;;8.32;100.00
19777;BME280;10047;42.490;26.012;2023-04-23T04:26:20;100526.50;;;8.14;100.00
19777;BME280;10047;42.490;26.012;2023-04-23T04:28:45;100581.03;;;9.27;100.00
19777;BME280;10047;42.490;26.012;2023-04-23T04:31:14;100582.88;;;11.17;100.00
19777;BME280;10047;42.490;26.012;2023-04-23T04:33:40;100505.69;;;8.66;100.00
19777;BME280;10047;42.490;26.012;2023-04-23T04:36:06;100498.22;;;8.56;100.00
19777;BME280;10047;42.490;26.012;2023-04-23T04:38:33;100540.47;;;9.24;100.00
19777;BME280;10047;42.490;26.012;2023-04-23T04:41:04;100475.91;;;8.84;100.00
19777;BME280;10047;42.490;26.012;2023-04-23T04:43:29;100542.97;;;9.27;100.00
19777;BME280;10047;42.490;26.012;2023-04-23T04:45:56;100508.63;;;9.02;100.00
19777;BME280;10047;42.490;26.012;2023-04-23T04:48:23;100549.41;;;9.49;100.00
19777;BME280;10047;42.490;26.012;2023-04-23T04:50:49;100567.88;;;9.58;100.00
19777;BME280;10047;42.490;26.012;2023-04-23T04:53:15;100554.56;;;9.44;100.00
19777;BME280;10047;42.490;26.012;2023-04-23T04:55:40;100488.63;;;8.81;100.00
19777;BME280;10047;42.490;26.012;2023-04-23T04:58:06;100573.53;;;9.76;100.00
19777;BME280;10047;42.490;26.012;2023-04-23T05:00:31;100585.59;;;10.16;100.00
19777;BME280;10047;42.490;26.012;2023-04-23T05:02:57;100529.47;;;9.80;100.00
19777;BME280;10047;42.490;26.012;2023-04-23T05:05:31;100535.78;;;10.08;100.00
19777;BME280;10047;42.490;26.012;2023-04-23T05:07:57;100501.19;;;10.01;100.00
19777;BME280;10047;42.490;26.012;2023-04-23T05:10:27;100616.28;;;11.00;100.00
19777;BME280;10047;42.490;26.012;2023-04-23T05:12:54;100624.63;;;11.08;100.00
19777;BME280;10047;42.490;26.012;2023-04-23T05:15:20;100623.19;;;11.37;100.00
19777;BME280;10047;42.490;26.012;2023-04-23T05:17:45;100634.09;;;11.42;100.00
19777;BME280;10047;42.490;26.012;2023-04-23T05:20:11;100637.88;;;11.64;100.00
19777;BME280;10047;42.490;26.012;2023-04-23T05:22:37;100642.88;;;11.70;100.00
19777;BME280;10047;42.490;26.012;2023-04-23T05:25:04;100653.91;;;12.07;100.00
19777;BME280;10047;42.490;26.012;2023-04-23T05:27:30;100656.53;;;12.04;100.00
19777;BME280;10047;42.490;26.012;2023-04-23T05:29:56;100578.50;;;11.23;100.00
19777;BME280;10047;42.490;26.012;2023-04-23T05:32:21;100657.97;;;12.15;100.00
19777;BME280;10047;42.490;26.012;2023-04-23T05:34:47;100644.13;;;11.89;100.00
19777;BME280;10047;42.490;26.012;2023-04-23T05:37:12;100619.44;;;12.26;100.00
19777;BME280;10047;42.490;26.012;2023-04-23T05:39:38;100596.03;;;12.12;100.00
19777;BME280;10047;42.490;26.012;2023-04-23T05:42:03;100647.50;;;12.60;100.00
19777;BME280;10047;42.490;26.012;2023-04-23T05:44:29;100583.59;;;12.00;100.00
19777;BME280;10047;42.490;26.012;2023-04-23T05:46:56;100653.03;;;12.77;100.00
19777;BME280;10047;42.490;26.012;2023-04-23T05:49:21;100663.44;;;13.32;100.00
19777;BME280;10047;42.490;26.012;2023-04-23T05:51:47;100601.50;;;12.95;100.00
19777;BME280;10047;42.490;26.012;2023-04-23T05:54:12;100643.34;;;13.20;100.00
19777;BME280;10047;42.490;26.012;2023-04-23T05:56:38;100577.72;;;12.93;100.00
19777;BME280;10047;42.490;26.012;2023-04-23T05:59:03;100593.53;;;13.64;100.00
19777;BME280;10047;42.490;26.012;2023-04-23T06:01:28;100619.75;;;13.41;100.00
19777;BME280;10047;42.490;26.012;2023-04-23T06:03:54;100628.84;;;14.05;100.00
19777;BME280;10047;42.490;26.012;2023-04-23T06:06:19;100623.41;;;14.16;100.00
19777;BME280;10047;42.490;26.012;2023-04-23T06:08:45;100563.75;;;14.15;100.00
19777;BME280;10047;42.490;26.012;2023-04-23T06:11:10;100540.81;;;13.87;100.00
19777;BME280;10047;42.490;26.012;2023-04-23T06:13:36;100614.03;;;14.67;100.00
19777;BME280;10047;42.490;26.012;2023-04-23T06:16:06;100599.16;;;15.01;100.00
19777;BME280;10047;42.490;26.012;2023-04-23T06:18:32;100601.59;;;15.04;100.00
19777;BME280;10047;42.490;26.012;2023-04-23T06:20:58;100505.94;;;14.11;100.00
19777;BME280;10047;42.490;26.012;2023-04-23T06:23:28;100543.81;;;14.00;100.00
19777;BME280;10047;42.490;26.012;2023-04-23T06:25:54;100567.19;;;14.88;100.00
19777;BME280;10047;42.490;26.012;2023-04-23T06:28:19;100559.91;;;15.01;100.00
19777;BME280;10047;42.490;26.012;2023-04-23T06:30:44;100474.63;;;14.29;100.00
19777;BME280;10047;42.490;26.012;2023-04-23T06:33:10;100553.38;;;15.60;100.00
19777;BME280;10047;42.490;26.012;2023-04-23T06:35:36;100546.44;;;15.84;100.00
19777;BME280;10047;42.490;26.012;2023-04-23T06:38:02;100529.28;;;16.06;100.00
19777;BME280;10047;42.490;26.012;2023-04-23T06:40:27;100479.03;;;15.38;100.00
19777;BME280;10047;42.490;26.012;2023-04-23T06:42:52;100486.91;;;15.55;100.00
19777;BME280;10047;42.490;26.012;2023-04-23T06:45:18;100460.44;;;15.55;100.00
19777;BME280;10047;42.490;26.012;2023-04-23T06:47:44;100444.19;;;16.35;100.00
19777;BME280;10047;42.490;26.012;2023-04-23T06:50:10;100341.63;;;15.36;100.00
19777;BME280;10047;42.490;26.012;2023-04-23T06:52:35;100392.88;;;16.35;100.00
19777;BME280;10047;42.490;26.012;2023-04-23T06:55:01;100378.28;;;16.91;100.00
19777;BME280;10047;42.490;26.012;2023-04-23T06:57:27;100307.94;;;16.77;100.00
19777;BME280;10047;42.490;26.012;2023-04-23T06:59:52;100177.59;;;16.46;100.00
19777;BME280;10047;42.490;26.012;2023-04-23T07:02:18;100091.38;;;15.74;100.00
19777;BME280;10047;42.490;26.012;2023-04-23T07:04:43;100097.81;;;17.00;100.00
19777;BME280;10047;42.490;26.012;2023-04-23T07:07:09;100150.19;;;16.98;100.00
19777;BME280;10047;42.490;26.012;2023-04-23T07:09:34;100148.88;;;16.57;100.00
19777;BME280;10047;42.490;26.012;2023-04-23T07:12:00;100277.66;;;17.67;100.00
19777;BME280;10047;42.490;26.012;2023-04-23T07:14:26;100335.06;;;17.33;100.00
19777;BME280;10047;42.490;26.012;2023-04-23T07:16:51;100402.41;;;17.06;100.00
19777;BME280;10047;42.490;26.012;2023-04-23T07:19:18;100468.81;;;17.68;100.00
19777;BME280;10047;42.490;26.012;2023-04-23T07:21:44;100482.97;;;17.76;100.00
19777;BME280;10047;42.490;26.012;2023-04-23T07:24:09;100584.44;;;17.88;100.00
19777;BME280;10047;42.490;26.012;2023-04-23T07:26:35;100616.81;;;17.92;100.00
19777;BME280;10047;42.490;26.012;2023-04-23T07:29:02;100741.34;;;18.06;100.00
19777;BME280;10047;42.490;26.012;2023-04-23T07:31:28;100775.50;;;18.29;100.00
19777;BME280;10047;42.490;26.012;2023-04-23T07:33:54;100829.78;;;17.06;100.00
19777;BME280;10047;42.490;26.012;2023-04-23T07:36:20;100819.41;;;17.50;100.00
19777;BME280;10047;42.490;26.012;2023-04-23T07:38:46;100948.34;;;18.78;100.00
19777;BME280;10047;42.490;26.012;2023-04-23T07:41:12;100969.09;;;17.98;100.00
19777;BME280;10047;42.490;26.012;2023-04-23T07:43:39;100980.38;;;18.34;100.00
19777;BME280;10047;42.490;26.012;2023-04-23T07:46:06;100943.72;;;17.89;100.00
19777;BME280;10047;42.490;26.012;2023-04-23T07:48:31;100896.91;;;18.19;100.00
19777;BME280;10047;42.490;26.012;2023-04-23T07:50:58;100912.22;;;18.61;100.00
19777;BME280;10047;42.490;26.012;2023-04-23T07:53:23;100912.38;;;18.38;100.00
19777;BME280;10047;42.490;26.012;2023-04-23T07:55:49;100893.72;;;18.89;100.00
19777;BME280;10047;42.490;26.012;2023-04-23T07:58:14;100932.06;;;18.20;100.00
19777;BME280;10047;42.490;26.012;2023-04-23T08:00:39;100999.84;;;19.34;100.00
19777;BME280;10047;42.490;26.012;2023-04-23T08:03:05;100978.13;;;19.02;100.00
19777;BME280;10047;42.490;26.012;2023-04-23T08:05:30;100856.03;;;19.03;100.00
19777;BME280;10047;42.490;26.012;2023-04-23T08:07:57;100842.66;;;18.43;100.00
19777;BME280;10047;42.490;26.012;2023-04-23T08:10:22;100787.50;;;18.82;100.00
19777;BME280;10047;42.490;26.012;2023-04-23T08:12:48;100818.66;;;19.96;100.00
19777;BME280;10047;42.490;26.012;2023-04-23T08:15:13;100819.53;;;18.95;100.00
19777;BME280;10047;42.490;26.012;2023-04-23T08:17:39;100844.41;;;19.31;100.00
19777;BME280;10047;42.490;26.012;2023-04-23T08:20:05;100871.72;;;19.35;100.00
19777;BME280;10047;42.490;26.012;2023-04-23T08:22:33;100882.41;;;19.78;100.00
19777;BME280;10047;42.490;26.012;2023-04-23T08:24:58;100871.19;;;20.11;100.00
19777;BME280;10047;42.490;26.012;2023-04-23T08:27:24;100913.28;;;18.93;100.00
19777;BME280;10047;42.490;26.012;2023-04-23T08:29:49;100905.28;;;19.16;100.00
19777;BME280;10047;42.490;26.012;2023-04-23T08:32:15;100904.53;;;19.14;100.00
19777;BME280;10047;42.490;26.012;2023-04-23T08:34:41;100871.47;;;18.69;100.00
19777;BME280;10047;42.490;26.012;2023-04-23T08:37:06;100826.94;;;19.01;100.00
19777;BME280;10047;42.490;26.012;2023-04-23T08:39:33;100890.41;;;19.57;100.00
19777;BME280;10047;42.490;26.012;2023-04-23T08:42:08;100864.72;;;18.30;100.00
19777;BME280;10047;42.490;26.012;2023-04-23T08:44:37;100826.00;;;18.68;100.00
19777;BME280;10047;42.490;26.012;2023-04-23T08:47:06;100858.19;;;19.13;100.00
19777;BME280;10047;42.490;26.012;2023-04-23T08:49:35;100839.13;;;18.98;100.00
19777;BME280;10047;42.490;26.012;2023-04-23T08:52:22;100856.44;;;19.30;100.00
19777;BME280;10047;42.490;26.012;2023-04-23T08:54:49;100919.59;;;19.74;100.00
19777;BME280;10047;42.490;26.012;2023-04-23T08:57:16;100901.13;;;19.82;100.00
19777;BME280;10047;42.490;26.012;2023-04-23T08:59:43;100922.50;;;20.01;100.00
19777;BME280;10047;42.490;26.012;2023-04-23T09:02:08;100839.38;;;19.11;100.00
19777;BME280;10047;42.490;26.012;2023-04-23T09:04:35;100898.75;;;19.09;100.00
19777;BME280;10047;42.490;26.012;2023-04-23T09:07:01;100876.06;;;18.98;100.00
19777;BME280;10047;42.490;26.012;2023-04-23T09:09:28;100927.63;;;20.51;100.00
19777;BME280;10047;42.490;26.012;2023-04-23T09:11:57;100934.88;;;20.12;100.00
19777;BME280;10047;42.490;26.012;2023-04-23T09:14:23;100912.03;;;19.87;100.00
19777;BME280;10047;42.490;26.012;2023-04-23T09:16:50;100964.72;;;20.50;100.00
19777;BME280;10047;42.490;26.012;2023-04-23T09:19:16;101151.31;;;20.39;100.00
19777;BME280;10047;42.490;26.012;2023-04-23T09:21:43;101256.88;;;19.15;100.00
19777;BME280;10047;42.490;26.012;2023-04-23T09:24:09;101535.19;;;19.64;100.00
19777;BME280;10047;42.490;26.012;2023-04-23T09:26:46;102217.47;;;20.97;100.00
19777;BME280;10047;42.490;26.012;2023-04-23T09:29:17;103369.78;;;19.67;100.00
19777;BME280;10047;42.490;26.012;2023-04-23T09:31:48;103657.59;;;19.09;100.00
19777;BME280;10047;42.490;26.012;2023-04-23T09:34:15;103453.69;;;20.10;100.00
19777;BME280;10047;42.490;26.012;2023-04-23T09:36:44;103291.09;;;19.95;100.00
19777;BME280;10047;42.490;26.012;2023-04-23T09:39:11;102682.56;;;18.57;100.00
19777;BME280;10047;42.490;26.012;2023-04-23T09:41:37;102424.00;;;18.13;100.00
19777;BME280;10047;42.490;26.012;2023-04-23T09:44:03;102271.97;;;19.83;100.00
19777;BME280;10047;42.490;26.012;2023-04-23T09:46:42;101772.75;;;20.29;100.00
19777;BME280;10047;42.490;26.012;2023-04-23T09:49:08;101381.72;;;19.51;100.00
19777;BME280;10047;42.490;26.012;2023-04-23T09:51:38;101212.78;;;20.84;100.00
19777;BME280;10047;42.490;26.012;2023-04-23T09:54:12;100652.44;;;21.71;100.00
19777;BME280;10047;42.490;26.012;2023-04-23T09:56:38;100338.06;;;20.71;100.00
19777;BME280;10047;42.490;26.012;2023-04-23T09:59:28;100717.00;;;21.45;100.00
19777;BME280;10047;42.490;26.012;2023-04-23T10:01:54;100794.59;;;20.58;100.00
19777;BME280;10047;42.490;26.012;2023-04-23T10:04:23;100818.72;;;20.72;100.00
19777;BME280;10047;42.490;26.012;2023-04-23T10:06:56;100935.81;;;21.21;100.00
19777;BME280;10047;42.490;26.012;2023-04-23T10:09:22;100992.00;;;20.55;100.00
19777;BME280;10047;42.490;26.012;2023-04-23T10:11:53;101072.91;;;21.98;100.00
19777;BME280;10047;42.490;26.012;2023-04-23T10:14:20;101100.19;;;20.46;100.00
19777;BME280;10047;42.490;26.012;2023-04-23T10:16:46;101158.59;;;20.31;100.00
19777;BME280;10047;42.490;26.012;2023-04-23T10:19:17;101187.44;;;20.58;100.00
19777;BME280;10047;42.490;26.012;2023-04-23T10:21:45;101186.75;;;19.46;100.00
19777;BME280;10047;42.490;26.012;2023-04-23T10:24:12;101276.88;;;20.60;100.00
19777;BME280;10047;42.490;26.012;2023-04-23T10:26:41;101445.03;;;21.30;100.00
19777;BME280;10047;42.490;26.012;2023-04-23T10:29:12;101491.09;;;20.09;100.00
19777;BME280;10047;42.490;26.012;2023-04-23T10:31:39;101509.16;;;20.68;100.00
19777;BME280;10047;42.490;26.012;2023-04-23T10:34:05;101597.19;;;20.85;100.00
19777;BME280;10047;42.490;26.012;2023-04-23T10:36:38;101655.19;;;21.74;100.00
19777;BME280;10047;42.490;26.012;2023-04-23T10:39:06;101568.19;;;20.58;100.00
19777;BME280;10047;42.490;26.012;2023-04-23T10:41:37;101607.72;;;20.42;100.00
19777;BME280;10047;42.490;26.012;2023-04-23T10:44:04;101612.81;;;21.39;100.00
19777;BME280;10047;42.490;26.012;2023-04-23T10:46:30;101595.81;;;21.34;100.00
19777;BME280;10047;42.490;26.012;2023-04-23T10:49:10;101549.03;;;21.20;100.00
19777;BME280;10047;42.490;26.012;2023-04-23T10:51:40;101591.09;;;20.67;100.00
19777;BME280;10047;42.490;26.012;2023-04-23T10:54:08;101597.22;;;20.25;100.00
19777;BME280;10047;42.490;26.012;2023-04-23T10:56:42;101565.84;;;20.34;100.00
19777;BME280;10047;42.490;26.012;2023-04-23T10:59:18;101596.50;;;21.00;100.00
19777;BME280;10047;42.490;26.012;2023-04-23T11:01:48;101576.47;;;20.46;100.00
19777;BME280;10047;42.490;26.012;2023-04-23T11:04:24;101630.59;;;21.28;100.00
19777;BME280;10047;42.490;26.012;2023-04-23T11:06:51;101565.06;;;20.52;100.00
19777;BME280;10047;42.490;26.012;2023-04-23T11:09:30;101535.53;;;19.97;100.00
19777;BME280;10047;42.490;26.012;2023-04-23T11:11:56;101527.47;;;20.45;100.00
19777;BME280;10047;42.490;26.012;2023-04-23T11:17:06;101580.78;;;20.66;100.00
19777;BME280;10047;42.490;26.012;2023-04-23T11:19:36;101486.53;;;20.36;100.00
19777;BME280;10047;42.490;26.012;2023-04-23T11:22:15;101524.78;;;21.58;100.00
19777;BME280;10047;42.490;26.012;2023-04-23T11:24:43;101444.78;;;21.18;100.00
19777;BME280;10047;42.490;26.012;2023-04-23T11:27:13;101312.84;;;21.18;100.00
19777;BME280;10047;42.490;26.012;2023-04-23T11:29:44;101372.50;;;21.32;100.00
19777;BME280;10047;42.490;26.012;2023-04-23T11:32:11;101317.06;;;20.85;100.00
19777;BME280;10047;42.490;26.012;2023-04-23T11:34:44;101242.31;;;20.09;100.00
19777;BME280;10047;42.490;26.012;2023-04-23T11:37:11;101282.06;;;20.06;100.00
19777;BME280;10047;42.490;26.012;2023-04-23T11:39:38;101297.16;;;21.04;100.00
19777;BME280;10047;42.490;26.012;2023-04-23T11:42:12;101283.47;;;21.19;100.00
19777;BME280;10047;42.490;26.012;2023-04-23T11:44:42;101248.19;;;20.84;100.00
19777;BME280;10047;42.490;26.012;2023-04-23T11:47:09;101214.09;;;20.58;100.00
19777;BME280;10047;42.490;26.012;2023-04-23T11:49:44;101250.28;;;20.58;100.00
19777;BME280;10047;42.490;26.012;2023-04-23T11:52:10;101185.78;;;21.07;100.00
19777;BME280;10047;42.490;26.012;2023-04-23T11:54:39;101248.84;;;20.87;100.00
19777;BME280;10047;42.490;26.012;2023-04-23T11:57:05;101229.28;;;20.64;100.00
19777;BME280;10047;42.490;26.012;2023-04-23T11:59:31;101195.22;;;20.56;100.00
19777;BME280;10047;42.490;26.012;2023-04-23T12:01:57;101219.34;;;20.40;100.00
19777;BME280;10047;42.490;26.012;2023-04-23T12:04:28;101175.47;;;20.38;100.00
19777;BME280;10047;42.490;26.012;2023-04-23T12:06:55;101149.56;;;20.40;100.00
19777;BME280;10047;42.490;26.012;2023-04-23T12:09:22;101069.81;;;21.46;100.00
19777;BME280;10047;42.490;26.012;2023-04-23T12:11:48;101076.41;;;21.36;100.00
19777;BME280;10047;42.490;26.012;2023-04-23T12:14:27;101042.69;;;20.58;100.00
19777;BME280;10047;42.490;26.012;2023-04-23T12:16:53;100923.44;;;20.48;100.00
19777;BME280;10047;42.490;26.012;2023-04-23T12:19:21;100831.72;;;20.09;100.00
19777;BME280;10047;42.490;26.012;2023-04-23T12:21:59;100855.78;;;21.76;100.00
19777;BME280;10047;42.490;26.012;2023-04-23T12:24:30;100802.38;;;20.72;100.00
19777;BME280;10047;42.490;26.012;2023-04-23T12:27:00;100699.34;;;20.36;100.00
19777;BME280;10047;42.490;26.012;2023-04-23T12:29:28;100698.34;;;20.68;100.00
19777;BME280;10047;42.490;26.012;2023-04-23T12:31:57;100605.56;;;20.92;100.00
19777;BME280;10047;42.490;26.012;2023-04-23T12:34:23;100426.88;;;21.50;100.00